sensor_id;sensor_type;location;lat;lon;timestamp;temperature;humidity
11908;DHT22;6014;47.690;9.130;2022-09-27T00:01:44;10.50;99.90
11908;DHT22;6014;47.690;9.130;2022-09-27T00:04:13;10.40;99.90
11908;DHT22;6014;47.690;9.130;2022-09-27T00:06:41;10.40;99.90
11908;DHT22;6014;47.690;9.130;2022-09-27T00:09:09;10.40;99.90
11908;DHT22;6014;47.690;9.130;2022-09-27T00:11:39;10.40;99.90
11908;DHT22;6014;47.690;9.130;2022-09-27T00:14:10;10.40;99.90
11908;DHT22;6014;47.690;9.130;2022-09-27T00:16:40;10.40;99.90
11908;DHT22;6014;47.690;9.130;2022-09-27T00:19:20;10.30;99.90
11908;DHT22;6014;47.690;9.130;2022-09-27T00:21:56;10.30;99.90
11908;DHT22;6014;47.690;9.130;2022-09-27T00:24:28;10.30;99.90
11908;DHT22;6014;47.690;9.130;2022-09-27T00:26:57;10.30;99.90
11908;DHT22;6014;47.690;9.130;2022-09-27T00:29:25;10.30;99.90
11908;DHT22;6014;47.690;9.130;2022-09-27T00:31:53;10.30;99.90
11908;DHT22;6014;47.690;9.130;2022-09-27T00:34:24;10.40;99.90
11908;DHT22;6014;47.690;9.130;2022-09-27T00:36:52;10.30;99.90
11908;DHT22;6014;47.690;9.130;2022-09-27T00:39:21;10.30;99.90
11908;DHT22;6014;47.690;9.130;2022-09-27T00:41:49;10.30;99.90
11908;DHT22;6014;47.690;9.130;2022-09-27T00:44:52;10.30;99.90
11908;DHT22;6014;47.690;9.130;2022-09-27T00:47:26;10.20;99.90
11908;DHT22;6014;47.690;9.130;2022-09-27T00:50:02;10.30;99.90
11908;DHT22;6014;47.690;9.130;2022-09-27T00:52:36;10.30;99.90
11908;DHT22;6014;47.690;9.130;2022-09-27T00:55:12;10.30;99.90
11908;DHT22;6014;47.690;9.130;2022-09-27T00:57:44;10.20;99.90
11908;DHT22;6014;47.690;9.130;2022-09-27T01:00:14;10.20;99.90
11908;DHT22;6014;47.690;9.130;2022-09-27T01:02:44;10.20;99.90
11908;DHT22;6014;47.690;9.130;2022-09-27T01:05:17;10.30;99.90
11908;DHT22;6014;47.690;9.130;2022-09-27T01:07:46;10.30;99.90
11908;DHT22;6014;47.690;9.130;2022-09-27T01:10:16;10.30;99.90
11908;DHT22;6014;47.690;9.130;2022-09-27T01:12:56;10.30;99.90
11908;DHT22;6014;47.690;9.130;2022-09-27T01:15:32;10.30;99.90
11908;DHT22;6014;47.690;9.130;2022-09-27T01:18:23;10.30;99.90
11908;DHT22;6014;47.690;9.130;2022-09-27T01:24:49;10.30;99.90
11908;DHT22;6014;47.690;9.130;2022-09-27T01:27:58;10.40;99.90
11908;DHT22;6014;47.690;9.130;2022-09-27T01:30:39;10.40;99.90
11908;DHT22;6014;47.690;9.130;2022-09-27T01:33:17;10.40;99.90
11908;DHT22;6014;47.690;9.130;2022-09-27T01:36:06;10.40;99.90
11908;DHT22;6014;47.690;9.130;2022-09-27T01:38:43;10.40;99.90
11908;DHT22;6014;47.690;9.130;2022-09-27T01:41:21;10.40;99.90
11908;DHT22;6014;47.690;9.130;2022-09-27T01:43:56;10.40;99.90
11908;DHT22;6014;47.690;9.130;2022-09-27T01:46:31;10.40;99.90
11908;DHT22;6014;47.690;9.130;2022-09-27T01:49:05;10.40;99.90
11908;DHT22;6014;47.690;9.130;2022-09-27T01:51:38;10.40;99.90
11908;DHT22;6014;47.690;9.130;2022-09-27T01:54:11;10.50;99.90
11908;DHT22;6014;47.690;9.130;2022-09-27T01:56:46;10.50;99.90
11908;DHT22;6014;47.690;9.130;2022-09-27T01:59:19;10.50;99.90
11908;DHT22;6014;47.690;9.130;2022-09-27T02:01:53;10.50;99.90
11908;DHT22;6014;47.690;9.130;2022-09-27T02:04:28;10.40;99.90
11908;DHT22;6014;47.690;9.130;2022-09-27T02:07:02;10.50;99.90
11908;DHT22;6014;47.690;9.130;2022-09-27T02:09:35;10.40;99.90
11908;DHT22;6014;47.690;9.130;2022-09-27T02:12:07;10.40;99.90
11908;DHT22;6014;47.690;9.130;2022-09-27T02:14:41;10.40;99.90
11908;DHT22;6014;47.690;9.130;2022-09-27T02:17:20;10.40;99.90
11908;DHT22;6014;47.690;9.130;2022-09-27T02:19:53;10.40;99.90
11908;DHT22;6014;47.690;9.130;2022-09-27T02:22:31;10.40;99.90
11908;DHT22;6014;47.690;9.130;2022-09-27T02:25:04;10.40;99.90
11908;DHT22;6014;47.690;9.130;2022-09-27T02:27:39;10.30;99.90
11908;DHT22;6014;47.690;9.130;2022-09-27T02:30:14;10.30;99.90
11908;DHT22;6014;47.690;9.130;2022-09-27T02:32:44;10.30;99.90
11908;DHT22;6014;47.690;9.130;2022-09-27T02:35:16;10.30;99.90
11908;DHT22;6014;47.690;9.130;2022-09-27T02:37:46;10.30;99.90
11908;DHT22;6014;47.690;9.130;2022-09-27T02:40:15;10.30;99.90
11908;DHT22;6014;47.690;9.130;2022-09-27T02:42:44;10.30;99.90
11908;DHT22;6014;47.690;9.130;2022-09-27T02:45:15;10.30;99.90
11908;DHT22;6014;47.690;9.130;2022-09-27T02:47:56;10.30;99.90
11908;DHT22;6014;47.690;9.130;2022-09-27T02:50:43;10.30;99.90
11908;DHT22;6014;47.690;9.130;2022-09-27T02:53:24;10.30;99.90
11908;DHT22;6014;47.690;9.130;2022-09-27T02:56:02;10.30;99.90
11908;DHT22;6014;47.690;9.130;2022-09-27T02:58:45;10.40;99.90
11908;DHT22;6014;47.690;9.130;2022-09-27T03:01:21;10.30;99.90
11908;DHT22;6014;47.690;9.130;2022-09-27T03:03:56;10.40;99.90
11908;DHT22;6014;47.690;9.130;2022-09-27T03:06:27;10.40;99.90
11908;DHT22;6014;47.690;9.130;2022-09-27T03:08:56;10.50;99.90
11908;DHT22;6014;47.690;9.130;2022-09-27T03:11:25;10.50;99.90
11908;DHT22;6014;47.690;9.130;2022-09-27T03:13:53;10.50;99.90
11908;DHT22;6014;47.690;9.130;2022-09-27T03:16:34;10.40;99.90
11908;DHT22;6014;47.690;9.130;2022-09-27T03:19:04;10.40;99.90
11908;DHT22;6014;47.690;9.130;2022-09-27T03:21:32;10.40;99.90
11908;DHT22;6014;47.690;9.130;2022-09-27T03:24:01;10.30;99.90
11908;DHT22;6014;47.690;9.130;2022-09-27T03:26:29;10.30;99.90
11908;DHT22;6014;47.690;9.130;2022-09-27T03:28:57;10.30;99.90
11908;DHT22;6014;47.690;9.130;2022-09-27T03:31:25;10.30;99.90
11908;DHT22;6014;47.690;9.130;2022-09-27T03:33:54;10.30;99.90
11908;DHT22;6014;47.690;9.130;2022-09-27T03:36:23;10.30;99.90
11908;DHT22;6014;47.690;9.130;2022-09-27T03:38:52;10.30;99.90
11908;DHT22;6014;47.690;9.130;2022-09-27T03:41:20;10.20;99.90
11908;DHT22;6014;47.690;9.130;2022-09-27T03:43:48;10.20;99.90
11908;DHT22;6014;47.690;9.130;2022-09-27T03:46:17;10.30;99.90
11908;DHT22;6014;47.690;9.130;2022-09-27T03:48:45;10.20;99.90
11908;DHT22;6014;47.690;9.130;2022-09-27T03:51:13;10.20;99.90
11908;DHT22;6014;47.690;9.130;2022-09-27T03:53:43;10.30;99.90
11908;DHT22;6014;47.690;9.130;2022-09-27T03:56:11;10.20;99.90
11908;DHT22;6014;47.690;9.130;2022-09-27T03:58:39;10.20;99.90
11908;DHT22;6014;47.690;9.130;2022-09-27T04:01:07;10.10;99.90
11908;DHT22;6014;47.690;9.130;2022-09-27T04:03:36;10.10;99.90
11908;DHT22;6014;47.690;9.130;2022-09-27T04:06:04;10.10;99.90
11908;DHT22;6014;47.690;9.130;2022-09-27T04:08:32;10.10;99.90
11908;DHT22;6014;47.690;9.130;2022-09-27T04:11:02;10.10;99.90
11908;DHT22;6014;47.690;9.130;2022-09-27T04:13:31;10.10;99.90
11908;DHT22;6014;47.690;9.130;2022-09-27T04:15:59;10.10;99.90
11908;DHT22;6014;47.690;9.130;2022-09-27T04:18:28;10.00;99.90
11908;DHT22;6014;47.690;9.130;2022-09-27T04:20:57;9.90;99.90
11908;DHT22;6014;47.690;9.130;2022-09-27T04:23:25;9.90;99.90
11908;DHT22;6014;47.690;9.130;2022-09-27T04:25:56;10.00;99.90
11908;DHT22;6014;47.690;9.130;2022-09-27T04:28:25;9.90;99.90
11908;DHT22;6014;47.690;9.130;2022-09-27T04:30:58;9.80;99.90
11908;DHT22;6014;47.690;9.130;2022-09-27T04:33:26;9.80;99.90
11908;DHT22;6014;47.690;9.130;2022-09-27T04:35:54;9.90;99.90
11908;DHT22;6014;47.690;9.130;2022-09-27T04:38:40;9.80;99.90
11908;DHT22;6014;47.690;9.130;2022-09-27T04:41:08;9.90;99.90
11908;DHT22;6014;47.690;9.130;2022-09-27T04:43:38;9.90;99.90
11908;DHT22;6014;47.690;9.130;2022-09-27T04:46:06;9.80;99.90
11908;DHT22;6014;47.690;9.130;2022-09-27T04:48:34;9.80;99.90
11908;DHT22;6014;47.690;9.130;2022-09-27T04:51:03;9.90;99.90
11908;DHT22;6014;47.690;9.130;2022-09-27T04:53:32;10.00;99.90
11908;DHT22;6014;47.690;9.130;2022-09-27T04:56:00;10.00;99.90
11908;DHT22;6014;47.690;9.130;2022-09-27T04:58:33;10.00;99.90
11908;DHT22;6014;47.690;9.130;2022-09-27T05:01:03;10.00;99.90
11908;DHT22;6014;47.690;9.130;2022-09-27T05:03:33;9.90;99.90
11908;DHT22;6014;47.690;9.130;2022-09-27T05:06:03;9.80;99.90
11908;DHT22;6014;47.690;9.130;2022-09-27T05:08:38;9.80;99.90
11908;DHT22;6014;47.690;9.130;2022-09-27T05:11:13;9.80;99.90
11908;DHT22;6014;47.690;9.130;2022-09-27T05:13:41;9.90;99.90
11908;DHT22;6014;47.690;9.130;2022-09-27T05:16:11;10.00;99.90
11908;DHT22;6014;47.690;9.130;2022-09-27T05:18:40;10.00;99.90
11908;DHT22;6014;47.690;9.130;2022-09-27T05:21:10;10.10;99.90
11908;DHT22;6014;47.690;9.130;2022-09-27T05:23:39;10.00;99.90
11908;DHT22;6014;47.690;9.130;2022-09-27T05:26:13;9.90;99.90
11908;DHT22;6014;47.690;9.130;2022-09-27T05:28:41;10.00;99.90
11908;DHT22;6014;47.690;9.130;2022-09-27T05:31:13;10.00;99.90
11908;DHT22;6014;47.690;9.130;2022-09-27T05:33:48;10.00;99.90
11908;DHT22;6014;47.690;9.130;2022-09-27T05:36:16;10.10;99.90
11908;DHT22;6014;47.690;9.130;2022-09-27T05:38:44;10.10;99.90
11908;DHT22;6014;47.690;9.130;2022-09-27T05:41:12;10.10;99.90
11908;DHT22;6014;47.690;9.130;2022-09-27T05:43:40;10.00;99.90
11908;DHT22;6014;47.690;9.130;2022-09-27T05:46:09;10.00;99.90
11908;DHT22;6014;47.690;9.130;2022-09-27T05:48:39;10.00;99.90
11908;DHT22;6014;47.690;9.130;2022-09-27T05:51:10;10.10;99.90
11908;DHT22;6014;47.690;9.130;2022-09-27T05:53:38;10.10;99.90
11908;DHT22;6014;47.690;9.130;2022-09-27T05:56:07;10.20;99.90
11908;DHT22;6014;47.690;9.130;2022-09-27T05:58:36;10.20;99.90
11908;DHT22;6014;47.690;9.130;2022-09-27T06:01:05;10.20;99.90
11908;DHT22;6014;47.690;9.130;2022-09-27T06:03:35;10.20;99.90
11908;DHT22;6014;47.690;9.130;2022-09-27T06:06:16;10.10;99.90
11908;DHT22;6014;47.690;9.130;2022-09-27T06:08:52;10.30;99.90
11908;DHT22;6014;47.690;9.130;2022-09-27T06:11:20;10.30;99.90
11908;DHT22;6014;47.690;9.130;2022-09-27T06:13:48;10.30;99.90
11908;DHT22;6014;47.690;9.130;2022-09-27T06:16:35;10.40;99.90
11908;DHT22;6014;47.690;9.130;2022-09-27T06:19:03;10.40;99.90
11908;DHT22;6014;47.690;9.130;2022-09-27T06:21:33;10.20;99.90
11908;DHT22;6014;47.690;9.130;2022-09-27T06:24:02;10.00;99.90
11908;DHT22;6014;47.690;9.130;2022-09-27T06:26:30;9.90;99.90
11908;DHT22;6014;47.690;9.130;2022-09-27T06:28:59;9.90;99.90
11908;DHT22;6014;47.690;9.130;2022-09-27T06:31:27;9.80;99.90
11908;DHT22;6014;47.690;9.130;2022-09-27T06:33:55;9.80;99.90
11908;DHT22;6014;47.690;9.130;2022-09-27T06:36:23;9.80;99.90
11908;DHT22;6014;47.690;9.130;2022-09-27T06:38:53;9.70;99.90
11908;DHT22;6014;47.690;9.130;2022-09-27T06:41:21;9.70;99.90
11908;DHT22;6014;47.690;9.130;2022-09-27T06:43:49;9.80;99.90
11908;DHT22;6014;47.690;9.130;2022-09-27T06:46:17;9.80;99.90
11908;DHT22;6014;47.690;9.130;2022-09-27T06:48:46;9.80;99.90
11908;DHT22;6014;47.690;9.130;2022-09-27T06:51:14;9.80;99.90
11908;DHT22;6014;47.690;9.130;2022-09-27T06:53:42;9.60;99.90
11908;DHT22;6014;47.690;9.130;2022-09-27T06:56:12;9.60;99.90
11908;DHT22;6014;47.690;9.130;2022-09-27T06:58:40;9.70;99.90
11908;DHT22;6014;47.690;9.130;2022-09-27T07:01:27;9.60;99.90
11908;DHT22;6014;47.690;9.130;2022-09-27T07:03:55;9.70;99.90
11908;DHT22;6014;47.690;9.130;2022-09-27T07:06:24;9.70;99.90
11908;DHT22;6014;47.690;9.130;2022-09-27T07:08:53;9.70;99.90
11908;DHT22;6014;47.690;9.130;2022-09-27T07:11:22;9.70;99.90
11908;DHT22;6014;47.690;9.130;2022-09-27T07:13:51;9.70;99.90
11908;DHT22;6014;47.690;9.130;2022-09-27T07:16:19;9.70;99.90
11908;DHT22;6014;47.690;9.130;2022-09-27T07:18:49;9.70;99.90
11908;DHT22;6014;47.690;9.130;2022-09-27T07:21:17;9.70;99.90
11908;DHT22;6014;47.690;9.130;2022-09-27T07:23:45;9.60;99.90
11908;DHT22;6014;47.690;9.130;2022-09-27T07:26:15;9.50;99.90
11908;DHT22;6014;47.690;9.130;2022-09-27T07:28:44;9.40;99.90
11908;DHT22;6014;47.690;9.130;2022-09-27T07:31:12;9.40;99.90
11908;DHT22;6014;47.690;9.130;2022-09-27T07:33:41;9.40;99.90
11908;DHT22;6014;47.690;9.130;2022-09-27T07:36:11;9.40;99.90
11908;DHT22;6014;47.690;9.130;2022-09-27T07:38:39;9.40;99.90
11908;DHT22;6014;47.690;9.130;2022-09-27T07:41:09;9.30;99.90
11908;DHT22;6014;47.690;9.130;2022-09-27T07:43:40;9.30;99.90
11908;DHT22;6014;47.690;9.130;2022-09-27T07:46:10;9.30;99.90
11908;DHT22;6014;47.690;9.130;2022-09-27T07:48:39;9.30;99.90
11908;DHT22;6014;47.690;9.130;2022-09-27T07:51:07;9.30;99.90
11908;DHT22;6014;47.690;9.130;2022-09-27T07:53:37;9.30;99.90
11908;DHT22;6014;47.690;9.130;2022-09-27T07:56:06;9.30;99.90
11908;DHT22;6014;47.690;9.130;2022-09-27T07:58:37;9.30;99.90
11908;DHT22;6014;47.690;9.130;2022-09-27T08:01:05;9.40;99.90
11908;DHT22;6014;47.690;9.130;2022-09-27T08:03:35;9.40;99.90
11908;DHT22;6014;47.690;9.130;2022-09-27T08:06:03;9.50;99.90
11908;DHT22;6014;47.690;9.130;2022-09-27T08:08:31;9.50;99.90
11908;DHT22;6014;47.690;9.130;2022-09-27T08:10:59;9.50;99.90
11908;DHT22;6014;47.690;9.130;2022-09-27T08:13:28;9.60;99.90
11908;DHT22;6014;47.690;9.130;2022-09-27T08:16:00;9.70;99.90
11908;DHT22;6014;47.690;9.130;2022-09-27T08:18:28;9.60;99.90
11908;DHT22;6014;47.690;9.130;2022-09-27T08:20:58;9.50;99.90
11908;DHT22;6014;47.690;9.130;2022-09-27T08:23:27;9.40;99.90
11908;DHT22;6014;47.690;9.130;2022-09-27T08:26:07;9.40;99.90
11908;DHT22;6014;47.690;9.130;2022-09-27T08:28:35;9.40;99.90
11908;DHT22;6014;47.690;9.130;2022-09-27T08:31:03;9.40;99.90
11908;DHT22;6014;47.690;9.130;2022-09-27T08:33:31;9.50;99.90
11908;DHT22;6014;47.690;9.130;2022-09-27T08:36:11;9.50;99.90
11908;DHT22;6014;47.690;9.130;2022-09-27T08:38:39;9.50;99.90
11908;DHT22;6014;47.690;9.130;2022-09-27T08:41:10;9.60;99.90
11908;DHT22;6014;47.690;9.130;2022-09-27T08:43:50;9.80;99.90
11908;DHT22;6014;47.690;9.130;2022-09-27T08:46:26;9.80;99.90
11908;DHT22;6014;47.690;9.130;2022-09-27T08:49:08;9.90;99.90
11908;DHT22;6014;47.690;9.130;2022-09-27T08:51:39;10.00;99.90
11908;DHT22;6014;47.690;9.130;2022-09-27T08:54:13;9.90;99.90
11908;DHT22;6014;47.690;9.130;2022-09-27T08:56:45;9.90;99.90
11908;DHT22;6014;47.690;9.130;2022-09-27T08:59:17;9.80;99.90
11908;DHT22;6014;47.690;9.130;2022-09-27T09:01:49;9.80;99.90
11908;DHT22;6014;47.690;9.130;2022-09-27T09:04:23;9.80;99.90
11908;DHT22;6014;47.690;9.130;2022-09-27T09:07:01;9.90;99.90
11908;DHT22;6014;47.690;9.130;2022-09-27T09:09:38;10.00;99.90
11908;DHT22;6014;47.690;9.130;2022-09-27T09:12:27;10.10;99.90
11908;DHT22;6014;47.690;9.130;2022-09-27T09:15:21;10.20;99.90
11908;DHT22;6014;47.690;9.130;2022-09-27T09:18:05;10.30;99.90
11908;DHT22;6014;47.690;9.130;2022-09-27T09:20:46;10.30;99.90
11908;DHT22;6014;47.690;9.130;2022-09-27T09:23:40;10.40;99.90
11908;DHT22;6014;47.690;9.130;2022-09-27T09:26:13;10.50;99.90
11908;DHT22;6014;47.690;9.130;2022-09-27T09:28:52;10.60;99.90
11908;DHT22;6014;47.690;9.130;2022-09-27T09:31:27;10.60;99.90
11908;DHT22;6014;47.690;9.130;2022-09-27T09:34:02;10.70;99.90
11908;DHT22;6014;47.690;9.130;2022-09-27T09:36:36;10.80;99.90
11908;DHT22;6014;47.690;9.130;2022-09-27T09:39:13;10.80;99.90
11908;DHT22;6014;47.690;9.130;2022-09-27T09:41:49;10.80;99.90
11908;DHT22;6014;47.690;9.130;2022-09-27T09:44:22;10.70;99.90
11908;DHT22;6014;47.690;9.130;2022-09-27T09:46:56;10.80;99.90
11908;DHT22;6014;47.690;9.130;2022-09-27T09:49:28;10.90;99.90
11908;DHT22;6014;47.690;9.130;2022-09-27T09:52:01;11.00;99.90
11908;DHT22;6014;47.690;9.130;2022-09-27T09:54:39;10.90;99.90
11908;DHT22;6014;47.690;9.130;2022-09-27T09:57:13;10.90;99.90
11908;DHT22;6014;47.690;9.130;2022-09-27T09:59:46;10.80;99.90
11908;DHT22;6014;47.690;9.130;2022-09-27T10:02:22;10.90;99.90
11908;DHT22;6014;47.690;9.130;2022-09-27T10:04:53;10.70;99.90
11908;DHT22;6014;47.690;9.130;2022-09-27T10:07:22;10.70;99.90
11908;DHT22;6014;47.690;9.130;2022-09-27T10:09:56;10.70;99.90
11908;DHT22;6014;47.690;9.130;2022-09-27T10:12:26;10.80;99.90
11908;DHT22;6014;47.690;9.130;2022-09-27T10:14:57;11.00;99.90
11908;DHT22;6014;47.690;9.130;2022-09-27T10:17:33;11.20;99.90
11908;DHT22;6014;47.690;9.130;2022-09-27T10:20:03;11.40;99.90
11908;DHT22;6014;47.690;9.130;2022-09-27T10:22:35;11.50;99.90
11908;DHT22;6014;47.690;9.130;2022-09-27T10:25:07;11.80;99.90
11908;DHT22;6014;47.690;9.130;2022-09-27T10:27:38;11.90;99.90
11908;DHT22;6014;47.690;9.130;2022-09-27T10:30:21;12.10;99.90
11908;DHT22;6014;47.690;9.130;2022-09-27T10:32:52;12.00;99.90
11908;DHT22;6014;47.690;9.130;2022-09-27T10:35:33;11.80;99.90
11908;DHT22;6014;47.690;9.130;2022-09-27T10:38:27;11.70;99.90
11908;DHT22;6014;47.690;9.130;2022-09-27T10:41:14;11.50;99.90
11908;DHT22;6014;47.690;9.130;2022-09-27T10:43:43;11.30;99.90
11908;DHT22;6014;47.690;9.130;2022-09-27T10:46:15;11.10;99.90
11908;DHT22;6014;47.690;9.130;2022-09-27T10:48:43;10.90;99.90
11908;DHT22;6014;47.690;9.130;2022-09-27T10:51:23;10.80;99.90
11908;DHT22;6014;47.690;9.130;2022-09-27T10:53:51;10.70;99.90
11908;DHT22;6014;47.690;9.130;2022-09-27T10:56:28;10.80;99.90
11908;DHT22;6014;47.690;9.130;2022-09-27T10:58:57;10.80;99.90
11908;DHT22;6014;47.690;9.130;2022-09-27T11:01:26;10.60;99.90
11908;DHT22;6014;47.690;9.130;2022-09-27T11:04:05;10.40;99.90
11908;DHT22;6014;47.690;9.130;2022-09-27T11:06:33;10.20;99.90
11908;DHT22;6014;47.690;9.130;2022-09-27T11:09:19;10.10;99.90
11908;DHT22;6014;47.690;9.130;2022-09-27T11:12:09;10.10;99.90
11908;DHT22;6014;47.690;9.130;2022-09-27T11:14:38;10.00;99.90
11908;DHT22;6014;47.690;9.130;2022-09-27T11:17:12;10.00;99.90
11908;DHT22;6014;47.690;9.130;2022-09-27T11:19:57;10.10;99.90
11908;DHT22;6014;47.690;9.130;2022-09-27T11:25:32;10.30;99.90
11908;DHT22;6014;47.690;9.130;2022-09-27T11:28:12;10.50;99.90
11908;DHT22;6014;47.690;9.130;2022-09-27T11:30:49;10.30;99.90
11908;DHT22;6014;47.690;9.130;2022-09-27T11:36:25;10.30;99.90
11908;DHT22;6014;47.690;9.130;2022-09-27T11:39:03;10.40;99.90
11908;DHT22;6014;47.690;9.130;2022-09-27T11:41:41;10.60;99.90
11908;DHT22;6014;47.690;9.130;2022-09-27T11:44:31;10.80;99.90
11908;DHT22;6014;47.690;9.130;2022-09-27T11:47:11;11.10;99.90
11908;DHT22;6014;47.690;9.130;2022-09-27T11:53:10;11.30;99.90
11908;DHT22;6014;47.690;9.130;2022-09-27T11:55:49;11.30;99.90
11908;DHT22;6014;47.690;9.130;2022-09-27T11:58:25;11.40;99.90
11908;DHT22;6014;47.690;9.130;2022-09-27T12:01:05;11.70;99.90
11908;DHT22;6014;47.690;9.130;2022-09-27T12:04:01;12.00;99.90
11908;DHT22;6014;47.690;9.130;2022-09-27T12:06:45;12.20;99.90
11908;DHT22;6014;47.690;9.130;2022-09-27T12:09:18;12.40;99.90
11908;DHT22;6014;47.690;9.130;2022-09-27T12:11:54;12.20;99.90
11908;DHT22;6014;47.690;9.130;2022-09-27T12:14:31;12.30;99.90
11908;DHT22;6014;47.690;9.130;2022-09-27T12:17:05;12.50;99.90
11908;DHT22;6014;47.690;9.130;2022-09-27T12:19:37;12.30;99.90
11908;DHT22;6014;47.690;9.130;2022-09-27T12:22:12;12.40;99.90
11908;DHT22;6014;47.690;9.130;2022-09-27T12:24:42;12.30;99.90
11908;DHT22;6014;47.690;9.130;2022-09-27T12:27:23;12.70;99.90
11908;DHT22;6014;47.690;9.130;2022-09-27T12:29:54;12.80;99.90
11908;DHT22;6014;47.690;9.130;2022-09-27T12:32:30;12.90;99.90
11908;DHT22;6014;47.690;9.130;2022-09-27T12:35:01;13.00;99.90
11908;DHT22;6014;47.690;9.130;2022-09-27T12:37:33;13.10;99.90
11908;DHT22;6014;47.690;9.130;2022-09-27T12:40:12;13.00;99.90
11908;DHT22;6014;47.690;9.130;2022-09-27T12:42:46;12.80;99.90
11908;DHT22;6014;47.690;9.130;2022-09-27T12:45:15;12.70;99.90
11908;DHT22;6014;47.690;9.130;2022-09-27T12:48:01;13.00;99.90
11908;DHT22;6014;47.690;9.130;2022-09-27T12:50:37;13.00;99.90
11908;DHT22;6014;47.690;9.130;2022-09-27T12:53:11;13.10;99.90
11908;DHT22;6014;47.690;9.130;2022-09-27T12:56:08;13.10;99.90
11908;DHT22;6014;47.690;9.130;2022-09-27T13:01:58;13.20;99.90
11908;DHT22;6014;47.690;9.130;2022-09-27T13:04:58;13.80;99.90
11908;DHT22;6014;47.690;9.130;2022-09-27T13:07:41;13.90;99.90
11908;DHT22;6014;47.690;9.130;2022-09-27T13:13:11;14.10;99.90
11908;DHT22;6014;47.690;9.130;2022-09-27T13:15:43;14.10;99.90
11908;DHT22;6014;47.690;9.130;2022-09-27T13:18:28;14.00;99.90
11908;DHT22;6014;47.690;9.130;2022-09-27T13:20:58;13.80;99.90
11908;DHT22;6014;47.690;9.130;2022-09-27T13:23:53;13.90;99.90
11908;DHT22;6014;47.690;9.130;2022-09-27T13:29:23;13.90;99.90
11908;DHT22;6014;47.690;9.130;2022-09-27T13:32:17;14.20;99.90
11908;DHT22;6014;47.690;9.130;2022-09-27T13:34:48;14.00;99.90
11908;DHT22;6014;47.690;9.130;2022-09-27T13:37:47;14.20;99.90
11908;DHT22;6014;47.690;9.130;2022-09-27T13:40:27;13.90;99.90
11908;DHT22;6014;47.690;9.130;2022-09-27T13:45:55;14.20;99.90
11908;DHT22;6014;47.690;9.130;2022-09-27T13:48:27;14.40;99.90
11908;DHT22;6014;47.690;9.130;2022-09-27T13:51:01;14.10;99.90
11908;DHT22;6014;47.690;9.130;2022-09-27T13:53:33;13.60;99.90
11908;DHT22;6014;47.690;9.130;2022-09-27T13:56:03;13.40;99.90
11908;DHT22;6014;47.690;9.130;2022-09-27T13:58:51;13.40;99.90
11908;DHT22;6014;47.690;9.130;2022-09-27T14:01:25;13.50;99.90
11908;DHT22;6014;47.690;9.130;2022-09-27T14:03:58;13.40;99.90
11908;DHT22;6014;47.690;9.130;2022-09-27T14:06:29;13.30;99.90
11908;DHT22;6014;47.690;9.130;2022-09-27T14:09:12;13.30;99.90
11908;DHT22;6014;47.690;9.130;2022-09-27T14:11:43;12.90;99.90
11908;DHT22;6014;47.690;9.130;2022-09-27T14:14:22;12.80;99.90
11908;DHT22;6014;47.690;9.130;2022-09-27T14:16:53;12.60;99.90
11908;DHT22;6014;47.690;9.130;2022-09-27T14:19:24;12.50;99.90
11908;DHT22;6014;47.690;9.130;2022-09-27T14:22:12;12.50;99.90
11908;DHT22;6014;47.690;9.130;2022-09-27T14:24:46;12.60;99.90
11908;DHT22;6014;47.690;9.130;2022-09-27T14:27:34;12.90;99.90
11908;DHT22;6014;47.690;9.130;2022-09-27T14:30:12;13.10;99.90
11908;DHT22;6014;47.690;9.130;2022-09-27T14:32:47;13.00;99.90
11908;DHT22;6014;47.690;9.130;2022-09-27T14:35:17;12.90;99.90
11908;DHT22;6014;47.690;9.130;2022-09-27T14:38:05;12.70;99.90
11908;DHT22;6014;47.690;9.130;2022-09-27T14:40:58;12.60;99.90
11908;DHT22;6014;47.690;9.130;2022-09-27T14:43:27;12.40;99.90
11908;DHT22;6014;47.690;9.130;2022-09-27T14:45:58;12.30;99.90
11908;DHT22;6014;47.690;9.130;2022-09-27T14:48:28;12.10;99.90
11908;DHT22;6014;47.690;9.130;2022-09-27T14:51:00;12.00;99.90
11908;DHT22;6014;47.690;9.130;2022-09-27T14:53:34;12.00;99.90
11908;DHT22;6014;47.690;9.130;2022-09-27T14:56:05;11.90;99.90
11908;DHT22;6014;47.690;9.130;2022-09-27T14:58:35;12.00;99.90
11908;DHT22;6014;47.690;9.130;2022-09-27T15:01:15;11.90;99.90
11908;DHT22;6014;47.690;9.130;2022-09-27T15:03:44;11.90;99.90
11908;DHT22;6014;47.690;9.130;2022-09-27T15:06:15;11.80;99.90
11908;DHT22;6014;47.690;9.130;2022-09-27T15:08:44;11.70;99.90
11908;DHT22;6014;47.690;9.130;2022-09-27T15:11:22;11.50;99.90
11908;DHT22;6014;47.690;9.130;2022-09-27T15:13:51;11.20;99.90
11908;DHT22;6014;47.690;9.130;2022-09-27T15:16:23;10.90;99.90
11908;DHT22;6014;47.690;9.130;2022-09-27T15:18:59;10.80;99.90
11908;DHT22;6014;47.690;9.130;2022-09-27T15:21:33;10.70;99.90
11908;DHT22;6014;47.690;9.130;2022-09-27T15:24:02;10.60;99.90
11908;DHT22;6014;47.690;9.130;2022-09-27T15:26:37;10.50;99.90
11908;DHT22;6014;47.690;9.130;2022-09-27T15:29:17;10.50;99.90
11908;DHT22;6014;47.690;9.130;2022-09-27T15:31:48;10.50;99.90
11908;DHT22;6014;47.690;9.130;2022-09-27T15:34:25;10.50;99.90
11908;DHT22;6014;47.690;9.130;2022-09-27T15:36:56;10.40;99.90
11908;DHT22;6014;47.690;9.130;2022-09-27T15:39:27;10.40;99.90
11908;DHT22;6014;47.690;9.130;2022-09-27T15:42:07;10.50;99.90
11908;DHT22;6014;47.690;9.130;2022-09-27T15:44:42;10.50;99.90
11908;DHT22;6014;47.690;9.130;2022-09-27T15:50:33;10.50;99.90
11908;DHT22;6014;47.690;9.130;2022-09-27T15:53:02;10.50;99.90
11908;DHT22;6014;47.690;9.130;2022-09-27T16:22:45;9.70;99.90
11908;DHT22;6014;47.690;9.130;2022-09-27T16:25:23;10.00;99.90
11908;DHT22;6014;47.690;9.130;2022-09-27T16:27:57;10.00;99.90
11908;DHT22;6014;47.690;9.130;2022-09-27T16:30:26;9.90;99.90
11908;DHT22;6014;47.690;9.130;2022-09-27T16:32:55;9.90;99.90
11908;DHT22;6014;47.690;9.130;2022-09-27T16:35:26;9.90;99.90
11908;DHT22;6014;47.690;9.130;2022-09-27T16:37:56;9.80;99.90
11908;DHT22;6014;47.690;9.130;2022-09-27T16:40:24;9.80;99.90
11908;DHT22;6014;47.690;9.130;2022-09-27T16:42:55;9.70;99.90
11908;DHT22;6014;47.690;9.130;2022-09-27T16:45:29;9.70;99.90
11908;DHT22;6014;47.690;9.130;2022-09-27T16:48:01;9.70;99.90
11908;DHT22;6014;47.690;9.130;2022-09-27T16:50:30;9.80;99.90
11908;DHT22;6014;47.690;9.130;2022-09-27T16:53:17;9.70;99.90
11908;DHT22;6014;47.690;9.130;2022-09-27T16:55:58;9.70;99.90
11908;DHT22;6014;47.690;9.130;2022-09-27T16:58:32;9.70;99.90
11908;DHT22;6014;47.690;9.130;2022-09-27T17:01:01;9.70;99.90
11908;DHT22;6014;47.690;9.130;2022-09-27T17:03:31;9.70;99.90
11908;DHT22;6014;47.690;9.130;2022-09-27T17:06:00;9.70;99.90
11908;DHT22;6014;47.690;9.130;2022-09-27T17:08:31;9.70;99.90
11908;DHT22;6014;47.690;9.130;2022-09-27T17:11:06;9.70;99.90
11908;DHT22;6014;47.690;9.130;2022-09-27T17:13:53;9.80;99.90
11908;DHT22;6014;47.690;9.130;2022-09-27T17:16:23;9.70;99.90
11908;DHT22;6014;47.690;9.130;2022-09-27T17:18:51;9.70;99.90
11908;DHT22;6014;47.690;9.130;2022-09-27T17:21:20;9.70;99.90
11908;DHT22;6014;47.690;9.130;2022-09-27T17:23:50;9.70;99.90
11908;DHT22;6014;47.690;9.130;2022-09-27T17:26:21;9.70;99.90